Time,TemperatureF,DewpointF,PressureIn,WindDirection,WindDirectionDegrees,WindSpeedMPH,WindSpeedGustMPH,Humidity,HourlyPrecipIn,Conditions,Clouds,dailyrainin,SoftwareType,DateUTC
2013-04-13 00:00:00,41.1,31.4,27.92,WNW,291,5.0,14.0,68,0.00,,,3.50,WUHU216DAVISWMX,2013-04-13 04:00:00,
2013-04-13 00:05:00,41.1,31.4,27.92,NW,318,5.0,14.0,68,0.00,,,3.50,WUHU216DAVISWMX,2013-04-13 04:05:00,
2013-04-13 00:10:00,41.1,31.8,27.92,NW,317,5.0,12.0,69,0.00,,,3.50,WUHU216DAVISWMX,2013-04-13 04:10:00,
2013-04-13 00:15:00,41.1,31.4,27.92,NW,305,3.0,13.0,68,0.00,,,3.50,WUHU216DAVISWMX,2013-04-13 04:15:00,
2013-04-13 00:20:00,41.1,31.8,27.93,NW,314,7.0,13.0,69,0.00,,,3.50,WUHU216DAVISWMX,2013-04-13 04:20:00,
2013-04-13 00:25:00,41.1,31.4,27.92,NW,311,6.0,16.0,68,0.00,,,3.50,WUHU216DAVISWMX,2013-04-13 04:25:00,
2013-04-13 00:30:00,41.1,31.8,27.92,WNW,296,7.0,16.0,69,0.00,,,3.50,WUHU216DAVISWMX,2013-04-13 04:30:00,
2013-04-13 00:35:00,41.1,31.8,27.93,WNW,302,0.0,9.0,69,0.00,,,3.50,WUHU216DAVISWMX,2013-04-13 04:35:00,
2013-04-13 00:40:00,41.0,32.0,27.92,NW,306,2.0,10.0,70,0.00,,,3.50,WUHU216DAVISWMX,2013-04-13 04:40:00,
2013-04-13 00:45:00,41.0,31.7,27.92,NNW,330,3.0,12.0,69,0.00,,,3.50,WUHU216DAVISWMX,2013-04-13 04:45:00,
2013-04-13 00:50:00,41.0,31.7,27.92,WNW,301,5.0,12.0,69,0.00,,,3.50,WUHU216DAVISWMX,2013-04-13 04:50:00,
2013-04-13 00:55:00,40.8,31.9,27.92,NW,304,7.0,11.0,70,0.00,,,3.50,WUHU216DAVISWMX,2013-04-13 04:55:00,
2013-04-13 01:00:00,40.9,31.9,27.93,NNW,338,5.0,11.0,70,0.00,,,3.50,WUHU216DAVISWMX,2013-04-13 05:00:00,
2013-04-13 01:05:00,40.6,31.7,27.93,NNW,331,15.0,15.0,70,0.00,,,3.50,WUHU216DAVISWMX,2013-04-13 05:05:00,
2013-04-13 01:10:00,40.4,31.5,27.93,NW,318,5.0,16.0,70,0.00,,,3.50,WUHU216DAVISWMX,2013-04-13 05:10:00,
2013-04-13 01:15:00,40.4,31.8,27.93,NW,315,5.0,16.0,71,0.00,,,3.50,WUHU216DAVISWMX,2013-04-13 05:15:00,
2013-04-13 01:20:00,40.1,31.5,27.93,NNW,333,0.0,12.0,71,0.00,,,3.50,WUHU216DAVISWMX,2013-04-13 05:20:00,
2013-04-13 01:25:00,40.0,31.4,27.93,NW,321,8.0,13.0,71,0.00,,,3.50,WUHU216DAVISWMX,2013-04-13 05:25:00,
2013-04-13 01:30:00,39.9,31.3,27.93,WNW,303,10.0,13.0,71,0.00,,,3.50,WUHU216DAVISWMX,2013-04-13 05:30:00,
2013-04-13 01:35:00,39.7,30.8,27.93,NW,306,5.0,13.0,70,0.00,,,3.50,WUHU216DAVISWMX,2013-04-13 05:35:00,
2013-04-13 01:40:00,39.6,31.0,27.93,NW,312,7.0,12.0,71,0.00,,,3.50,WUHU216DAVISWMX,2013-04-13 05:40:00,
2013-04-13 01:45:00,39.6,31.4,27.93,WNW,302,15.0,16.0,72,0.00,,,3.50,WUHU216DAVISWMX,2013-04-13 05:45:00,
2013-04-13 01:50:00,39.6,31.7,27.93,WNW,299,14.0,16.0,73,0.00,,,3.50,WUHU216DAVISWMX,2013-04-13 05:50:00,
2013-04-13 01:55:00,39.6,31.7,27.93,NW,306,13.0,18.0,73,0.00,,,3.50,WUHU216DAVISWMX,2013-04-13 05:55:00,
2013-04-13 02:00:00,39.6,31.7,27.93,WNW,298,7.0,18.0,73,0.00,,,3.50,WUHU216DAVISWMX,2013-04-13 06:00:00,
2013-04-13 02:05:00,39.6,31.7,27.93,NW,309,4.0,14.0,73,0.00,,,3.50,WUHU216DAVISWMX,2013-04-13 06:05:00,
2013-04-13 02:10:00,39.6,31.7,27.93,NW,321,10.0,15.0,73,0.00,,,3.50,WUHU216DAVISWMX,2013-04-13 06:10:00,
2013-04-13 02:15:00,39.6,31.4,27.93,NW,306,12.0,16.0,72,0.00,,,3.50,WUHU216DAVISWMX,2013-04-13 06:15:00,
2013-04-13 02:20:00,39.6,31.0,27.93,NW,306,11.0,16.0,71,0.00,,,3.50,WUHU216DAVISWMX,2013-04-13 06:20:00,
2013-04-13 02:26:00,39.6,31.4,27.93,WNW,296,7.0,15.0,72,0.00,,,3.50,WUHU216DAVISWMX,2013-04-13 06:26:00,
2013-04-13 02:32:00,39.4,31.2,27.93,WNW,303,16.0,16.0,72,0.00,,,3.50,WUHU216DAVISWMX,2013-04-13 06:32:00,
2013-04-13 02:37:00,39.5,30.9,27.93,NW,316,9.0,17.0,71,0.00,,,3.50,WUHU216DAVISWMX,2013-04-13 06:37:00,
2013-04-13 02:42:00,39.5,30.9,27.93,NW,306,19.0,19.0,71,0.00,,,3.50,WUHU216DAVISWMX,2013-04-13 06:42:00,
2013-04-13 02:47:00,39.5,30.9,27.93,NW,306,10.0,19.0,71,0.00,,,3.50,WUHU216DAVISWMX,2013-04-13 06:47:00,
2013-04-13 02:52:00,39.5,30.9,27.93,NW,305,5.0,16.0,71,0.00,,,3.50,WUHU216DAVISWMX,2013-04-13 06:52:00,
2013-04-13 02:57:00,39.3,31.1,27.93,NW,319,5.0,18.0,72,0.00,,,3.50,WUHU216DAVISWMX,2013-04-13 06:57:00,
2013-04-13 03:02:00,39.3,31.1,27.93,NW,307,8.0,18.0,72,0.00,,,3.50,WUHU216DAVISWMX,2013-04-13 07:02:00,
2013-04-13 03:07:00,39.3,30.8,27.93,NW,313,18.0,18.0,71,0.00,,,3.50,WUHU216DAVISWMX,2013-04-13 07:07:00,
2013-04-13 03:13:00,39.3,30.8,27.93,WNW,298,8.0,18.0,71,0.00,,,3.50,WUHU216DAVISWMX,2013-04-13 07:13:00,
2013-04-13 03:18:00,39.3,30.8,27.93,NW,320,7.0,15.0,71,0.00,,,3.50,WUHU216DAVISWMX,2013-04-13 07:18:00,
2013-04-13 03:23:00,39.3,30.8,27.93,WNW,300,6.0,16.0,71,0.00,,,3.50,WUHU216DAVISWMX,2013-04-13 07:23:00,
2013-04-13 03:28:00,39.3,30.8,27.93,NW,308,12.0,18.0,71,0.00,,,3.50,WUHU216DAVISWMX,2013-04-13 07:28:00,
2013-04-13 03:33:00,39.2,30.7,27.92,NNW,332,7.0,18.0,71,0.00,,,3.50,WUHU216DAVISWMX,2013-04-13 07:33:00,
2013-04-13 03:38:00,39.1,30.2,27.92,NW,317,4.0,15.0,70,0.00,,,3.50,WUHU216DAVISWMX,2013-04-13 07:38:00,
2013-04-13 03:44:00,39.1,30.6,27.92,WNW,299,5.0,15.0,71,0.00,,,3.50,WUHU216DAVISWMX,2013-04-13 07:44:00,
2013-04-13 03:49:00,39.1,30.2,27.92,NW,321,10.0,22.0,70,0.00,,,3.50,WUHU216DAVISWMX,2013-04-13 07:49:00,
2013-04-13 03:54:00,39.1,30.2,27.93,WNW,298,5.0,22.0,70,0.00,,,3.50,WUHU216DAVISWMX,2013-04-13 07:54:00,
2013-04-13 03:59:00,39.1,30.2,27.92,NW,311,14.0,16.0,70,0.00,,,3.50,WUHU216DAVISWMX,2013-04-13 07:59:00,
2013-04-13 04:05:00,39.1,30.2,27.92,WNW,292,12.0,16.0,70,0.00,,,3.50,WUHU216DAVISWMX,2013-04-13 08:05:00,
2013-04-13 04:10:00,39.1,30.2,27.93,NW,322,11.0,17.0,70,0.00,,,3.50,WUHU216DAVISWMX,2013-04-13 08:10:00,
2013-04-13 04:15:00,39.0,29.8,27.93,NW,312,10.0,20.0,69,0.00,,,3.50,WUHU216DAVISWMX,2013-04-13 08:15:00,
2013-04-13 04:21:00,39.0,30.1,27.93,WNW,295,11.0,20.0,70,0.00,,,3.50,WUHU216DAVISWMX,2013-04-13 08:21:00,
2013-04-13 04:26:00,39.0,29.8,27.93,NW,316,9.0,18.0,69,0.00,,,3.50,WUHU216DAVISWMX,2013-04-13 08:26:00,
2013-04-13 04:31:00,38.9,29.3,27.93,NW,315,10.0,18.0,68,0.00,,,3.50,WUHU216DAVISWMX,2013-04-13 08:31:00,
2013-04-13 04:36:00,38.7,28.8,27.93,NW,310,14.0,16.0,67,0.00,,,3.50,WUHU216DAVISWMX,2013-04-13 08:36:00,
2013-04-13 04:42:00,38.6,27.9,27.94,NNW,328,12.0,19.0,65,0.00,,,3.50,WUHU216DAVISWMX,2013-04-13 08:42:00,
2013-04-13 04:47:00,38.5,27.5,27.93,NW,315,11.0,21.0,64,0.00,,,3.50,WUHU216DAVISWMX,2013-04-13 08:47:00,
2013-04-13 04:52:00,38.1,27.1,27.94,WNW,300,9.0,21.0,64,0.00,,,3.50,WUHU216DAVISWMX,2013-04-13 08:52:00,
2013-04-13 04:57:00,38.0,27.0,27.93,WNW,299,12.0,20.0,64,0.00,,,3.50,WUHU216DAVISWMX,2013-04-13 08:57:00,
2013-04-13 05:02:00,37.8,27.5,27.94,NW,310,8.0,16.0,66,0.00,,,3.50,WUHU216DAVISWMX,2013-04-13 09:02:00,
2013-04-13 05:07:00,37.5,27.6,27.94,WNW,297,9.0,15.0,67,0.00,,,3.50,WUHU216DAVISWMX,2013-04-13 09:07:00,
2013-04-13 05:13:00,37.5,26.5,27.94,WNW,301,13.0,30.0,64,0.00,,,3.50,WUHU216DAVISWMX,2013-04-13 09:13:00,
2013-04-13 05:18:00,37.5,26.5,27.94,WNW,291,7.0,30.0,64,0.00,,,3.50,WUHU216DAVISWMX,2013-04-13 09:18:00,
2013-04-13 05:23:00,37.1,25.7,27.95,WNW,295,11.0,15.0,63,0.00,,,3.50,WUHU216DAVISWMX,2013-04-13 09:23:00,
2013-04-13 05:28:00,36.9,25.5,27.95,WNW,294,11.0,16.0,63,0.00,,,3.50,WUHU216DAVISWMX,2013-04-13 09:28:00,
2013-04-13 05:33:00,36.7,25.4,27.95,WNW,289,9.0,16.0,63,0.00,,,3.50,WUHU216DAVISWMX,2013-04-13 09:33:00,
2013-04-13 05:39:00,36.6,25.6,27.95,WNW,292,7.0,16.0,64,0.00,,,3.50,WUHU216DAVISWMX,2013-04-13 09:39:00,
2013-04-13 05:44:00,36.4,25.1,27.95,WNW,288,7.0,16.0,63,0.00,,,3.50,WUHU216DAVISWMX,2013-04-13 09:44:00,
2013-04-13 05:49:00,36.2,25.6,27.95,NW,315,3.0,13.0,65,0.00,,,3.50,WUHU216DAVISWMX,2013-04-13 09:49:00,
2013-04-13 05:55:00,35.8,25.3,27.95,WNW,303,8.0,14.0,65,0.00,,,3.50,WUHU216DAVISWMX,2013-04-13 09:55:00,
2013-04-13 06:00:00,35.9,25.7,27.95,West,279,9.0,14.0,66,0.00,,,3.50,WUHU216DAVISWMX,2013-04-13 10:00:00,
2013-04-13 06:05:00,35.7,25.9,27.96,WNW,298,7.0,14.0,67,0.00,,,3.50,WUHU216DAVISWMX,2013-04-13 10:05:00,
2013-04-13 06:11:00,35.4,25.6,27.95,NW,314,7.0,17.0,67,0.00,,,3.50,WUHU216DAVISWMX,2013-04-13 10:11:00,
2013-04-13 06:16:00,35.6,26.2,27.96,WNW,298,11.0,17.0,68,0.00,,,3.50,WUHU216DAVISWMX,2013-04-13 10:16:00,
2013-04-13 06:21:00,35.4,26.0,27.95,WNW,291,6.0,13.0,68,0.00,,,3.50,WUHU216DAVISWMX,2013-04-13 10:21:00,
2013-04-13 06:26:00,35.4,26.3,27.95,WNW,293,7.0,15.0,69,0.00,,,3.50,WUHU216DAVISWMX,2013-04-13 10:26:00,
2013-04-13 06:31:00,35.1,26.0,27.96,WNW,289,4.0,15.0,69,0.00,,,3.50,WUHU216DAVISWMX,2013-04-13 10:31:00,
2013-04-13 06:37:00,35.0,26.3,27.96,WNW,300,3.0,8.0,70,0.00,,,3.50,WUHU216DAVISWMX,2013-04-13 10:37:00,
2013-04-13 06:42:00,34.9,26.2,27.96,WNW,288,2.0,8.0,70,0.00,,,3.50,WUHU216DAVISWMX,2013-04-13 10:42:00,
2013-04-13 06:47:00,34.6,25.9,27.96,WNW,288,0.0,7.0,70,0.00,,,3.50,WUHU216DAVISWMX,2013-04-13 10:47:00,
2013-04-13 06:52:00,34.4,26.0,27.96,WNW,288,0.0,5.0,71,0.00,,,3.50,WUHU216DAVISWMX,2013-04-13 10:52:00,
2013-04-13 06:57:00,34.5,26.1,27.97,WNW,291,5.0,6.0,71,0.00,,,3.50,WUHU216DAVISWMX,2013-04-13 10:57:00,
2013-04-13 07:03:00,34.6,26.2,27.97,WNW,287,0.0,11.0,71,0.00,,,3.50,WUHU216DAVISWMX,2013-04-13 11:03:00,
2013-04-13 07:08:00,34.6,26.6,27.97,West,268,0.0,11.0,72,0.00,,,3.50,WUHU216DAVISWMX,2013-04-13 11:08:00,
2013-04-13 07:13:00,34.6,26.6,27.97,West,280,0.0,7.0,72,0.00,,,3.50,WUHU216DAVISWMX,2013-04-13 11:13:00,
2013-04-13 07:18:00,34.6,26.6,27.98,West,281,4.0,7.0,72,0.00,,,3.50,WUHU216DAVISWMX,2013-04-13 11:18:00,
2013-04-13 07:23:00,34.6,26.9,27.98,WNW,300,4.0,8.0,73,0.00,,,3.50,WUHU216DAVISWMX,2013-04-13 11:23:00,
2013-04-13 07:28:00,34.8,26.8,27.98,WNW,298,0.0,8.0,72,0.00,,,3.50,WUHU216DAVISWMX,2013-04-13 11:28:00,
2013-04-13 07:34:00,34.5,26.5,27.98,WNW,298,0.0,5.0,72,0.00,,,3.50,WUHU216DAVISWMX,2013-04-13 11:34:00,
2013-04-13 07:41:00,34.5,26.8,27.98,WNW,298,0.0,4.0,73,0.00,,,3.50,WUHU216DAVISWMX,2013-04-13 11:41:00,
2013-04-13 07:46:00,35.1,27.4,27.99,WNW,294,3.0,8.0,73,0.00,,,3.50,WUHU216DAVISWMX,2013-04-13 11:46:00,
2013-04-13 07:51:00,35.5,27.8,27.99,WNW,285,4.0,8.0,73,0.00,,,3.50,WUHU216DAVISWMX,2013-04-13 11:51:00,
2013-04-13 07:56:00,35.9,27.5,27.99,WNW,284,3.0,8.0,71,0.00,,,3.50,WUHU216DAVISWMX,2013-04-13 11:56:00,
2013-04-13 08:03:00,36.4,27.6,28.00,WNW,294,3.0,7.0,70,0.00,,,3.50,WUHU216DAVISWMX,2013-04-13 12:03:00,
2013-04-13 08:09:00,36.7,27.2,28.00,WNW,297,5.0,11.0,68,0.00,,,3.50,WUHU216DAVISWMX,2013-04-13 12:09:00,
2013-04-13 08:14:00,37.0,27.5,28.00,WNW,292,7.0,11.0,68,0.00,,,3.50,WUHU216DAVISWMX,2013-04-13 12:14:00,
2013-04-13 08:19:00,37.1,27.2,28.00,WNW,298,6.0,10.0,67,0.00,,,3.50,WUHU216DAVISWMX,2013-04-13 12:19:00,
2013-04-13 08:24:00,37.3,27.1,28.00,WNW,297,9.0,11.0,66,0.00,,,3.50,WUHU216DAVISWMX,2013-04-13 12:24:00,
2013-04-13 08:29:00,37.7,27.8,27.99,WNW,296,4.0,11.0,67,0.00,,,3.50,WUHU216DAVISWMX,2013-04-13 12:29:00,
2013-04-13 08:35:00,38.1,27.1,28.00,NW,304,12.0,12.0,64,0.00,,,3.50,WUHU216DAVISWMX,2013-04-13 12:35:00,
2013-04-13 08:40:00,38.0,27.0,28.00,WNW,289,10.0,15.0,64,0.00,,,3.50,WUHU216DAVISWMX,2013-04-13 12:40:00,
2013-04-13 08:45:00,38.1,27.1,28.00,NW,307,0.0,15.0,64,0.00,,,3.50,WUHU216DAVISWMX,2013-04-13 12:45:00,
2013-04-13 08:50:00,38.4,27.4,28.00,WNW,291,1.0,12.0,64,0.00,,,3.50,WUHU216DAVISWMX,2013-04-13 12:50:00,
2013-04-13 08:55:00,38.5,27.5,28.00,WNW,290,10.0,11.0,64,0.00,,,3.50,WUHU216DAVISWMX,2013-04-13 12:55:00,
2013-04-13 09:00:00,38.5,27.5,28.00,West,278,5.0,11.0,64,0.00,,,3.50,WUHU216DAVISWMX,2013-04-13 13:00:00,
2013-04-13 09:05:00,38.4,27.4,28.00,WNW,282,5.0,9.0,64,0.00,,,3.50,WUHU216DAVISWMX,2013-04-13 13:05:00,
2013-04-13 09:11:00,38.4,27.4,28.00,WNW,287,7.0,9.0,64,0.00,,,3.50,WUHU216DAVISWMX,2013-04-13 13:11:00,
2013-04-13 09:16:00,38.3,27.3,28.00,NW,310,6.0,9.0,64,0.00,,,3.50,WUHU216DAVISWMX,2013-04-13 13:16:00,
2013-04-13 09:22:00,38.4,27.7,28.00,WNW,290,5.0,9.0,65,0.00,,,3.50,WUHU216DAVISWMX,2013-04-13 13:22:00,
2013-04-13 09:27:00,38.3,27.3,28.00,WNW,300,7.0,14.0,64,0.00,,,3.50,WUHU216DAVISWMX,2013-04-13 13:27:00,
2013-04-13 09:32:00,38.2,27.2,28.00,WNW,301,13.0,14.0,64,0.00,,,3.50,WUHU216DAVISWMX,2013-04-13 13:32:00,
2013-04-13 09:38:00,38.3,27.3,28.00,WNW,291,5.0,14.0,64,0.00,,,3.50,WUHU216DAVISWMX,2013-04-13 13:38:00,
2013-04-13 09:43:00,38.5,27.5,28.00,WNW,296,7.0,13.0,64,0.00,,,3.50,WUHU216DAVISWMX,2013-04-13 13:43:00,
2013-04-13 09:48:00,38.7,27.6,28.00,West,267,9.0,11.0,64,0.00,,,3.50,WUHU216DAVISWMX,2013-04-13 13:48:00,
2013-04-13 09:53:00,38.8,27.4,28.00,West,271,2.0,12.0,63,0.00,,,3.50,WUHU216DAVISWMX,2013-04-13 13:53:00,
2013-04-13 09:59:00,38.8,27.4,28.00,WNW,296,10.0,15.0,63,0.00,,,3.50,WUHU216DAVISWMX,2013-04-13 13:59:00,
2013-04-13 10:04:00,38.9,27.8,28.00,WNW,288,8.0,15.0,64,0.00,,,3.50,WUHU216DAVISWMX,2013-04-13 14:04:00,
2013-04-13 10:09:00,39.3,28.2,27.99,West,279,11.0,11.0,64,0.00,,,3.50,WUHU216DAVISWMX,2013-04-13 14:09:00,
2013-04-13 10:14:00,39.5,27.6,27.99,WNW,293,8.0,15.0,62,0.00,,,3.50,WUHU216DAVISWMX,2013-04-13 14:14:00,
2013-04-13 10:20:00,39.7,27.4,28.00,WNW,284,8.0,15.0,61,0.00,,,3.50,WUHU216DAVISWMX,2013-04-13 14:20:00,
2013-04-13 10:25:00,39.9,27.6,28.00,NW,304,7.0,14.0,61,0.00,,,3.50,WUHU216DAVISWMX,2013-04-13 14:25:00,
2013-04-13 10:30:00,40.0,26.9,28.00,West,279,9.0,19.0,59,0.00,,,3.50,WUHU216DAVISWMX,2013-04-13 14:30:00,
2013-04-13 10:35:00,40.0,26.9,28.00,West,277,12.0,20.0,59,0.00,,,3.50,WUHU216DAVISWMX,2013-04-13 14:35:00,
2013-04-13 10:40:00,40.3,27.2,28.00,SW,233,4.0,20.0,59,0.00,,,3.50,WUHU216DAVISWMX,2013-04-13 14:40:00,
2013-04-13 10:45:00,40.3,26.7,28.00,WSW,257,5.0,14.0,58,0.00,,,3.50,WUHU216DAVISWMX,2013-04-13 14:45:00,
2013-04-13 10:51:00,40.7,27.5,28.00,WNW,297,10.0,14.0,59,0.00,,,3.50,WUHU216DAVISWMX,2013-04-13 14:51:00,
2013-04-13 10:56:00,41.3,27.7,28.00,West,279,7.0,17.0,58,0.00,,,3.50,WUHU216DAVISWMX,2013-04-13 14:56:00,
2013-04-13 11:02:00,41.5,27.4,28.00,West,279,10.0,22.0,57,0.00,,,3.50,WUHU216DAVISWMX,2013-04-13 15:02:00,
2013-04-13 11:07:00,41.3,27.7,28.00,West,275,3.0,22.0,58,0.00,,,3.50,WUHU216DAVISWMX,2013-04-13 15:07:00,
2013-04-13 11:12:00,41.2,26.7,28.00,WNW,301,8.0,17.0,56,0.00,,,3.50,WUHU216DAVISWMX,2013-04-13 15:12:00,
2013-04-13 11:17:00,41.5,27.9,28.00,WNW,299,4.0,17.0,58,0.00,,,3.50,WUHU216DAVISWMX,2013-04-13 15:17:00,
2013-04-13 11:22:00,41.9,27.8,28.00,WNW,296,5.0,17.0,57,0.00,,,3.50,WUHU216DAVISWMX,2013-04-13 15:22:00,
2013-04-13 11:27:00,42.5,28.8,28.00,WNW,296,14.0,17.0,58,0.00,,,3.50,WUHU216DAVISWMX,2013-04-13 15:27:00,
2013-04-13 11:32:00,42.2,27.7,28.00,WNW,296,12.0,16.0,56,0.00,,,3.50,WUHU216DAVISWMX,2013-04-13 15:32:00,
2013-04-13 11:37:00,42.1,27.6,28.00,WSW,246,17.0,20.0,56,0.00,,,3.50,WUHU216DAVISWMX,2013-04-13 15:37:00,
2013-04-13 11:42:00,42.7,28.6,28.00,WNW,291,15.0,20.0,57,0.00,,,3.50,WUHU216DAVISWMX,2013-04-13 15:42:00,
2013-04-13 11:47:00,43.4,28.3,28.00,West,269,9.0,18.0,55,0.00,,,3.50,WUHU216DAVISWMX,2013-04-13 15:47:00,
2013-04-13 11:52:00,43.3,28.7,28.00,WNW,286,14.0,18.0,56,0.00,,,3.50,WUHU216DAVISWMX,2013-04-13 15:52:00,
2013-04-13 11:57:00,44.1,29.0,28.00,WNW,290,4.0,15.0,55,0.00,,,3.50,WUHU216DAVISWMX,2013-04-13 15:57:00,
2013-04-13 12:03:00,43.7,28.1,27.99,WNW,294,15.0,19.0,54,0.00,,,3.50,WUHU216DAVISWMX,2013-04-13 16:03:00,
2013-04-13 12:08:00,44.1,29.0,28.00,NW,307,4.0,19.0,55,0.00,,,3.50,WUHU216DAVISWMX,2013-04-13 16:08:00,
2013-04-13 12:13:00,44.5,29.4,27.99,WSW,251,7.0,13.0,55,0.00,,,3.50,WUHU216DAVISWMX,2013-04-13 16:13:00,
2013-04-13 12:18:00,44.8,28.7,27.99,West,265,7.0,20.0,53,0.00,,,3.50,WUHU216DAVISWMX,2013-04-13 16:18:00,
2013-04-13 12:23:00,44.8,28.7,28.00,NW,308,13.0,20.0,53,0.00,,,3.50,WUHU216DAVISWMX,2013-04-13 16:23:00,
2013-04-13 12:29:00,45.2,29.1,27.99,SW,234,4.0,18.0,53,0.00,,,3.50,WUHU216DAVISWMX,2013-04-13 16:29:00,
2013-04-13 12:34:00,45.3,28.2,27.99,NW,307,14.0,16.0,51,0.00,,,3.50,WUHU216DAVISWMX,2013-04-13 16:34:00,
2013-04-13 12:39:00,45.2,29.1,27.99,West,267,2.0,16.0,53,0.00,,,3.50,WUHU216DAVISWMX,2013-04-13 16:39:00,
2013-04-13 12:44:00,46.0,29.8,28.00,WNW,286,11.0,14.0,53,0.00,,,3.50,WUHU216DAVISWMX,2013-04-13 16:44:00,
2013-04-13 12:49:00,46.0,28.9,28.00,WNW,298,14.0,18.0,51,0.00,,,3.50,WUHU216DAVISWMX,2013-04-13 16:49:00,
2013-04-13 12:54:00,46.8,30.6,27.99,WNW,295,10.0,19.0,53,0.00,,,3.50,WUHU216DAVISWMX,2013-04-13 16:54:00,
2013-04-13 13:00:00,46.7,29.0,27.99,WNW,301,7.0,19.0,50,0.00,,,3.50,WUHU216DAVISWMX,2013-04-13 17:00:00,
2013-04-13 13:05:00,47.4,30.2,27.99,West,270,14.0,21.0,51,0.00,,,3.50,WUHU216DAVISWMX,2013-04-13 17:05:00,
2013-04-13 13:10:00,47.1,29.9,27.99,West,281,6.0,21.0,51,0.00,,,3.50,WUHU216DAVISWMX,2013-04-13 17:10:00,
2013-04-13 13:17:00,47.3,29.6,27.99,NW,315,8.0,16.0,50,0.00,,,3.50,WUHU216DAVISWMX,2013-04-13 17:17:00,
2013-04-13 13:22:00,47.5,30.2,27.98,WNW,298,10.0,15.0,51,0.00,,,3.50,WUHU216DAVISWMX,2013-04-13 17:22:00,
2013-04-13 13:28:00,47.8,30.5,27.98,WNW,286,15.0,17.0,51,0.00,,,3.50,WUHU216DAVISWMX,2013-04-13 17:28:00,
2013-04-13 13:33:00,48.1,30.8,27.98,WNW,299,12.0,17.0,51,0.00,,,3.50,WUHU216DAVISWMX,2013-04-13 17:33:00,
2013-04-13 13:38:00,48.6,30.2,27.98,West,263,2.0,18.0,49,0.00,,,3.50,WUHU216DAVISWMX,2013-04-13 17:38:00,
2013-04-13 13:43:00,48.9,29.5,27.98,WNW,294,2.0,18.0,47,0.00,,,3.50,WUHU216DAVISWMX,2013-04-13 17:43:00,
2013-04-13 13:48:00,49.4,30.5,27.99,WNW,299,14.0,17.0,48,0.00,,,3.50,WUHU216DAVISWMX,2013-04-13 17:48:00,
2013-04-13 13:53:00,49.1,31.7,27.99,WNW,293,7.0,20.0,51,0.00,,,3.50,WUHU216DAVISWMX,2013-04-13 17:53:00,
2013-04-13 13:58:00,49.4,30.5,27.99,WNW,299,8.0,20.0,48,0.00,,,3.50,WUHU216DAVISWMX,2013-04-13 17:58:00,
2013-04-13 14:03:00,49.0,31.1,27.98,West,268,8.0,22.0,50,0.00,,,3.50,WUHU216DAVISWMX,2013-04-13 18:03:00,
2013-04-13 14:08:00,49.8,29.7,27.98,WNW,295,11.0,22.0,46,0.00,,,3.50,WUHU216DAVISWMX,2013-04-13 18:08:00,
2013-04-13 14:13:00,50.7,31.7,27.98,West,280,14.0,18.0,48,0.00,,,3.50,WUHU216DAVISWMX,2013-04-13 18:13:00,
2013-04-13 14:18:00,51.5,31.9,27.98,NW,316,10.0,18.0,47,0.00,,,3.50,WUHU216DAVISWMX,2013-04-13 18:18:00,
2013-04-13 14:24:00,50.4,30.8,27.98,WNW,298,11.0,15.0,47,0.00,,,3.50,WUHU216DAVISWMX,2013-04-13 18:24:00,
2013-04-13 14:27:00,49.8,30.3,27.98,NW,313,12.0,19.0,47,0.00,,,3.50,WUHU216DAVISWMX,2013-04-13 18:27:00,
2013-04-13 14:32:00,50.0,31.0,27.98,WNW,290,10.0,19.0,48,0.00,,,3.50,WUHU216DAVISWMX,2013-04-13 18:32:00,
2013-04-13 14:37:00,50.1,31.1,27.98,NNW,332,14.0,22.0,48,0.00,,,3.50,WUHU216DAVISWMX,2013-04-13 18:37:00,
2013-04-13 14:42:00,50.8,32.3,27.98,NW,308,7.0,22.0,49,0.00,,,3.50,WUHU216DAVISWMX,2013-04-13 18:42:00,
2013-04-13 14:47:00,51.1,31.5,27.97,WNW,282,8.0,15.0,47,0.00,,,3.50,WUHU216DAVISWMX,2013-04-13 18:47:00,
2013-04-13 14:52:00,50.8,31.8,27.97,NW,307,10.0,15.0,48,0.00,,,3.50,WUHU216DAVISWMX,2013-04-13 18:52:00,
2013-04-13 14:57:00,50.6,31.6,27.96,West,265,12.0,17.0,48,0.00,,,3.50,WUHU216DAVISWMX,2013-04-13 18:57:00,
2013-04-13 15:02:00,50.8,31.2,27.96,WNW,299,7.0,23.0,47,0.00,,,3.50,WUHU216DAVISWMX,2013-04-13 19:02:00,
2013-04-13 15:07:00,51.1,31.5,27.95,WSW,258,6.0,23.0,47,0.00,,,3.50,WUHU216DAVISWMX,2013-04-13 19:07:00,
2013-04-13 15:12:00,51.7,31.5,27.95,WNW,285,9.0,16.0,46,0.00,,,3.50,WUHU216DAVISWMX,2013-04-13 19:12:00,
2013-04-13 15:17:00,52.3,31.5,27.95,West,269,8.0,16.0,45,0.00,,,3.50,WUHU216DAVISWMX,2013-04-13 19:17:00,
2013-04-13 15:22:00,52.3,31.5,27.95,West,271,11.0,16.0,45,0.00,,,3.50,WUHU216DAVISWMX,2013-04-13 19:22:00,
2013-04-13 15:27:00,52.1,31.3,27.95,NW,326,11.0,16.0,45,0.00,,,3.50,WUHU216DAVISWMX,2013-04-13 19:27:00,
2013-04-13 15:32:00,52.4,31.6,27.96,WNW,296,13.0,18.0,45,0.00,,,3.50,WUHU216DAVISWMX,2013-04-13 19:32:00,
2013-04-13 15:37:00,52.1,30.7,27.95,NW,307,21.0,21.0,44,0.00,,,3.50,WUHU216DAVISWMX,2013-04-13 19:37:00,
2013-04-13 15:42:00,51.4,31.2,27.96,West,277,4.0,21.0,46,0.00,,,3.50,WUHU216DAVISWMX,2013-04-13 19:42:00,
2013-04-13 15:47:00,52.4,31.6,27.95,WNW,292,9.0,18.0,45,0.00,,,3.50,WUHU216DAVISWMX,2013-04-13 19:47:00,
2013-04-13 15:52:00,53.2,32.3,27.96,WNW,300,4.0,16.0,45,0.00,,,3.50,WUHU216DAVISWMX,2013-04-13 19:52:00,
2013-04-13 15:57:00,53.7,31.0,27.95,West,263,7.0,15.0,42,0.00,,,3.50,WUHU216DAVISWMX,2013-04-13 19:57:00,
2013-04-13 16:02:00,53.7,31.6,27.95,WNW,300,17.0,22.0,43,0.00,,,3.50,WUHU216DAVISWMX,2013-04-13 20:02:00,
2013-04-13 16:07:00,52.7,30.7,27.95,West,280,7.0,22.0,43,0.00,,,3.50,WUHU216DAVISWMX,2013-04-13 20:07:00,
2013-04-13 16:13:00,52.6,31.2,27.95,West,269,5.0,18.0,44,0.00,,,3.50,WUHU216DAVISWMX,2013-04-13 20:13:00,
2013-04-13 16:18:00,53.1,31.6,27.95,NW,307,8.0,17.0,44,0.00,,,3.50,WUHU216DAVISWMX,2013-04-13 20:18:00,
2013-04-13 16:23:00,53.5,30.2,27.95,WNW,297,16.0,18.0,41,0.00,,,3.50,WUHU216DAVISWMX,2013-04-13 20:23:00,
2013-04-13 16:28:00,54.2,32.1,27.95,West,278,9.0,18.0,43,0.00,,,3.50,WUHU216DAVISWMX,2013-04-13 20:28:00,
2013-04-13 16:33:00,54.4,31.0,27.95,WNW,295,9.0,16.0,41,0.00,,,3.50,WUHU216DAVISWMX,2013-04-13 20:33:00,
2013-04-13 16:38:00,53.3,30.6,27.94,WNW,283,10.0,21.0,42,0.00,,,3.50,WUHU216DAVISWMX,2013-04-13 20:38:00,
2013-04-13 16:43:00,53.2,31.1,27.94,WSW,252,4.0,21.0,43,0.00,,,3.50,WUHU216DAVISWMX,2013-04-13 20:43:00,
2013-04-13 16:48:00,53.8,31.1,27.95,NW,313,7.0,15.0,42,0.00,,,3.50,WUHU216DAVISWMX,2013-04-13 20:48:00,
2013-04-13 16:53:00,53.5,30.8,27.95,NW,306,13.0,21.0,42,0.00,,,3.50,WUHU216DAVISWMX,2013-04-13 20:53:00,
2013-04-13 16:58:00,53.8,31.7,27.95,West,263,7.0,21.0,43,0.00,,,3.50,WUHU216DAVISWMX,2013-04-13 20:58:00,
2013-04-13 17:03:00,53.7,30.4,27.95,WNW,291,13.0,19.0,41,0.00,,,3.50,WUHU216DAVISWMX,2013-04-13 21:03:00,
2013-04-13 17:08:00,53.2,30.5,27.95,WNW,296,6.0,19.0,42,0.00,,,3.50,WUHU216DAVISWMX,2013-04-13 21:08:00,
2013-04-13 17:13:00,53.4,30.1,27.95,WNW,293,12.0,17.0,41,0.00,,,3.50,WUHU216DAVISWMX,2013-04-13 21:13:00,
2013-04-13 17:18:00,53.5,30.2,27.95,NW,312,7.0,19.0,41,0.00,,,3.50,WUHU216DAVISWMX,2013-04-13 21:18:00,
2013-04-13 17:23:00,53.1,29.2,27.95,NW,308,14.0,19.0,40,0.00,,,3.50,WUHU216DAVISWMX,2013-04-13 21:23:00,
2013-04-13 17:28:00,53.3,30.0,27.95,WNW,295,12.0,17.0,41,0.00,,,3.50,WUHU216DAVISWMX,2013-04-13 21:28:00,
2013-04-13 17:33:00,53.2,30.5,27.95,WNW,294,9.0,16.0,42,0.00,,,3.50,WUHU216DAVISWMX,2013-04-13 21:33:00,
2013-04-13 17:38:00,53.6,29.7,27.96,NW,310,8.0,16.0,40,0.00,,,3.50,WUHU216DAVISWMX,2013-04-13 21:38:00,
2013-04-13 17:43:00,52.8,29.0,27.96,WNW,293,8.0,19.0,40,0.00,,,3.50,WUHU216DAVISWMX,2013-04-13 21:43:00,
2013-04-13 17:48:00,52.5,29.9,27.96,NW,312,6.0,19.0,42,0.00,,,3.50,WUHU216DAVISWMX,2013-04-13 21:48:00,
2013-04-13 17:53:00,52.8,30.8,27.96,NW,312,4.0,18.0,43,0.00,,,3.50,WUHU216DAVISWMX,2013-04-13 21:53:00,
2013-04-13 17:58:00,52.8,29.0,27.96,WNW,282,9.0,18.0,40,0.00,,,3.50,WUHU216DAVISWMX,2013-04-13 21:58:00,
2013-04-13 18:03:00,52.8,29.0,27.96,NW,305,11.0,21.0,40,0.00,,,3.50,WUHU216DAVISWMX,2013-04-13 22:03:00,
2013-04-13 18:08:00,52.3,29.7,27.97,WNW,299,9.0,21.0,42,0.00,,,3.50,WUHU216DAVISWMX,2013-04-13 22:08:00,
2013-04-13 18:13:00,52.2,29.6,27.97,WNW,301,5.0,18.0,42,0.00,,,3.50,WUHU216DAVISWMX,2013-04-13 22:13:00,
2013-04-13 18:18:00,52.8,30.2,27.97,WNW,303,7.0,14.0,42,0.00,,,3.50,WUHU216DAVISWMX,2013-04-13 22:18:00,
2013-04-13 18:23:00,52.4,28.6,27.98,NW,309,14.0,15.0,40,0.00,,,3.50,WUHU216DAVISWMX,2013-04-13 22:23:00,
2013-04-13 18:28:00,52.1,28.9,27.98,NW,306,13.0,15.0,41,0.00,,,3.50,WUHU216DAVISWMX,2013-04-13 22:28:00,
2013-04-13 18:33:00,52.1,28.3,27.98,NW,310,14.0,20.0,40,0.00,,,3.50,WUHU216DAVISWMX,2013-04-13 22:33:00,
2013-04-13 18:38:00,51.8,28.1,27.98,WNW,300,12.0,21.0,40,0.00,,,3.50,WUHU216DAVISWMX,2013-04-13 22:38:00,
2013-04-13 18:43:00,51.5,29.6,27.98,NW,305,7.0,21.0,43,0.00,,,3.50,WUHU216DAVISWMX,2013-04-13 22:43:00,
2013-04-13 18:48:00,51.3,29.4,27.99,WNW,300,7.0,16.0,43,0.00,,,3.50,WUHU216DAVISWMX,2013-04-13 22:48:00,
2013-04-13 18:53:00,51.1,29.2,27.99,WNW,302,7.0,16.0,43,0.00,,,3.50,WUHU216DAVISWMX,2013-04-13 22:53:00,
2013-04-13 18:58:00,51.1,29.8,27.99,North,358,0.0,14.0,44,0.00,,,3.50,WUHU216DAVISWMX,2013-04-13 22:58:00,
2013-04-13 19:03:00,50.8,29.0,27.99,WNW,297,8.0,15.0,43,0.00,,,3.50,WUHU216DAVISWMX,2013-04-13 23:03:00,
2013-04-13 19:08:00,50.6,29.4,27.99,WNW,299,3.0,15.0,44,0.00,,,3.50,WUHU216DAVISWMX,2013-04-13 23:08:00,
2013-04-13 19:13:00,50.3,29.7,27.99,WNW,301,7.0,12.0,45,0.00,,,3.50,WUHU216DAVISWMX,2013-04-13 23:13:00,
2013-04-13 19:18:00,50.0,29.4,27.99,NW,319,11.0,12.0,45,0.00,,,3.50,WUHU216DAVISWMX,2013-04-13 23:18:00,
2013-04-13 19:23:00,49.5,28.9,27.99,NW,305,8.0,15.0,45,0.00,,,3.50,WUHU216DAVISWMX,2013-04-13 23:23:00,
2013-04-13 19:28:00,49.1,29.1,27.99,WNW,294,11.0,18.0,46,0.00,,,3.50,WUHU216DAVISWMX,2013-04-13 23:28:00,
2013-04-13 19:33:00,48.8,28.8,28.00,WNW,292,7.0,18.0,46,0.00,,,3.50,WUHU216DAVISWMX,2013-04-13 23:33:00,
2013-04-13 19:38:00,48.3,28.9,28.00,NW,307,7.0,12.0,47,0.00,,,3.50,WUHU216DAVISWMX,2013-04-13 23:38:00,
2013-04-13 19:43:00,48.2,28.8,28.00,NW,305,5.0,10.0,47,0.00,,,3.50,WUHU216DAVISWMX,2013-04-13 23:43:00,
2013-04-13 19:48:00,48.2,28.8,28.00,WNW,299,3.0,11.0,47,0.00,,,3.50,WUHU216DAVISWMX,2013-04-13 23:48:00,
2013-04-13 19:53:00,47.8,29.0,28.00,WNW,301,0.0,12.0,48,0.00,,,3.50,WUHU216DAVISWMX,2013-04-13 23:53:00,
2013-04-13 19:58:00,47.7,28.9,28.00,NW,310,0.0,12.0,48,0.00,,,3.50,WUHU216DAVISWMX,2013-04-13 23:58:00,
2013-04-13 20:03:00,47.4,29.1,28.00,NW,325,7.0,11.0,49,0.00,,,3.50,WUHU216DAVISWMX,2013-04-14 00:03:00,
2013-04-13 20:08:00,47.2,29.0,28.00,NW,324,4.0,11.0,49,0.00,,,3.50,WUHU216DAVISWMX,2013-04-14 00:08:00,
2013-04-13 20:13:00,47.1,28.9,28.01,NW,325,0.0,9.0,49,0.00,,,3.50,WUHU216DAVISWMX,2013-04-14 00:13:00,
2013-04-13 20:18:00,46.7,29.0,28.01,North,351,1.0,13.0,50,0.00,,,3.50,WUHU216DAVISWMX,2013-04-14 00:18:00,
2013-04-13 20:23:00,46.3,30.1,28.01,NNW,339,0.0,13.0,53,0.00,,,3.50,WUHU216DAVISWMX,2013-04-14 00:23:00,
2013-04-13 20:28:00,45.7,30.0,28.02,North,358,0.0,5.0,54,0.00,,,3.50,WUHU216DAVISWMX,2013-04-14 00:28:00,
2013-04-13 20:33:00,45.4,30.2,28.02,North,351,0.0,7.0,55,0.00,,,3.50,WUHU216DAVISWMX,2013-04-14 00:33:00,
2013-04-13 20:38:00,45.1,30.4,28.02,NNW,336,0.0,7.0,56,0.00,,,3.50,WUHU216DAVISWMX,2013-04-14 00:38:00,
2013-04-13 20:43:00,44.7,30.4,28.03,NW,325,0.0,11.0,57,0.00,,,3.50,WUHU216DAVISWMX,2013-04-14 00:43:00,
2013-04-13 20:48:00,44.4,30.2,28.03,NNW,345,4.0,11.0,57,0.00,,,3.50,WUHU216DAVISWMX,2013-04-14 00:48:00,
2013-04-13 20:53:00,44.1,30.3,28.03,NNW,346,0.0,8.0,58,0.00,,,3.50,WUHU216DAVISWMX,2013-04-14 00:53:00,
2013-04-13 20:58:00,43.9,29.7,28.04,NNW,345,0.0,5.0,57,0.00,,,3.50,WUHU216DAVISWMX,2013-04-14 00:58:00,
2013-04-13 21:03:00,43.6,29.4,28.04,NNW,346,0.0,5.0,57,0.00,,,3.50,WUHU216DAVISWMX,2013-04-14 01:03:00,
2013-04-13 21:08:00,43.3,29.6,28.04,North,355,0.0,7.0,58,0.00,,,3.50,WUHU216DAVISWMX,2013-04-14 01:08:00,
2013-04-13 21:13:00,43.2,29.5,28.04,NW,309,3.0,7.0,58,0.00,,,3.50,WUHU216DAVISWMX,2013-04-14 01:13:00,
2013-04-13 21:18:00,42.9,29.6,28.04,NNW,348,0.0,7.0,59,0.00,,,3.50,WUHU216DAVISWMX,2013-04-14 01:18:00,
2013-04-13 21:23:00,42.8,29.5,28.04,North,352,0.0,7.0,59,0.00,,,3.50,WUHU216DAVISWMX,2013-04-14 01:23:00,
2013-04-13 21:28:00,42.5,30.1,28.05,NW,321,0.0,6.0,61,0.00,,,3.50,WUHU216DAVISWMX,2013-04-14 01:28:00,
2013-04-13 21:33:00,42.2,30.2,28.05,NW,321,0.0,6.0,62,0.00,,,3.50,WUHU216DAVISWMX,2013-04-14 01:33:00,
2013-04-13 21:38:00,42.1,30.5,28.05,NW,321,0.0,4.0,63,0.00,,,3.50,WUHU216DAVISWMX,2013-04-14 01:38:00,
2013-04-13 21:43:00,41.8,30.6,28.05,NW,321,0.0,3.0,64,0.00,,,3.50,WUHU216DAVISWMX,2013-04-14 01:43:00,
2013-04-13 21:48:00,41.6,30.4,28.05,NW,321,0.0,3.0,64,0.00,,,3.50,WUHU216DAVISWMX,2013-04-14 01:48:00,
2013-04-13 21:53:00,41.2,30.0,28.05,NW,321,0.0,0.0,64,0.00,,,3.50,WUHU216DAVISWMX,2013-04-14 01:53:00,
2013-04-13 21:58:00,40.8,30.0,28.05,NW,321,0.0,0.0,65,0.00,,,3.50,WUHU216DAVISWMX,2013-04-14 01:58:00,
2013-04-13 22:03:00,40.5,29.7,28.05,NW,321,0.0,0.0,65,0.00,,,3.50,WUHU216DAVISWMX,2013-04-14 02:03:00,
2013-04-13 22:08:00,40.2,29.8,28.05,NW,321,0.0,0.0,66,0.00,,,3.50,WUHU216DAVISWMX,2013-04-14 02:08:00,
2013-04-13 22:13:00,39.9,29.9,28.05,NW,321,0.0,0.0,67,0.00,,,3.50,WUHU216DAVISWMX,2013-04-14 02:13:00,
2013-04-13 22:18:00,39.8,29.8,28.05,NW,321,0.0,0.0,67,0.00,,,3.50,WUHU216DAVISWMX,2013-04-14 02:18:00,
2013-04-13 22:23:00,39.6,29.6,28.05,NW,321,0.0,0.0,67,0.00,,,3.50,WUHU216DAVISWMX,2013-04-14 02:23:00,
2013-04-13 22:28:00,39.3,29.3,28.05,NW,321,0.0,0.0,67,0.00,,,3.50,WUHU216DAVISWMX,2013-04-14 02:28:00,
2013-04-13 22:33:00,39.2,29.6,28.05,NW,321,0.0,0.0,68,0.00,,,3.50,WUHU216DAVISWMX,2013-04-14 02:33:00,
2013-04-13 22:38:00,38.9,29.3,28.05,NW,321,0.0,0.0,68,0.00,,,3.50,WUHU216DAVISWMX,2013-04-14 02:38:00,
2013-04-13 22:43:00,38.7,29.1,28.06,NW,321,0.0,0.0,68,0.00,,,3.50,WUHU216DAVISWMX,2013-04-14 02:43:00,
2013-04-13 22:48:00,38.4,29.5,28.06,NW,321,0.0,0.0,70,0.00,,,3.50,WUHU216DAVISWMX,2013-04-14 02:48:00,
2013-04-13 22:53:00,38.2,29.7,28.06,NW,321,0.0,0.0,71,0.00,,,3.50,WUHU216DAVISWMX,2013-04-14 02:53:00,
2013-04-13 22:58:00,38.1,29.9,28.06,NW,321,0.0,0.0,72,0.00,,,3.50,WUHU216DAVISWMX,2013-04-14 02:58:00,
2013-04-13 23:03:00,37.8,29.6,28.06,NW,321,0.0,0.0,72,0.00,,,3.50,WUHU216DAVISWMX,2013-04-14 03:03:00,
2013-04-13 23:08:00,37.6,29.5,28.05,NW,321,0.0,0.0,72,0.00,,,3.50,WUHU216DAVISWMX,2013-04-14 03:08:00,
2013-04-13 23:13:00,37.5,29.4,28.06,NW,321,0.0,0.0,72,0.00,,,3.50,WUHU216DAVISWMX,2013-04-14 03:13:00,
2013-04-13 23:18:00,37.2,29.1,28.06,NW,321,0.0,0.0,72,0.00,,,3.50,WUHU216DAVISWMX,2013-04-14 03:18:00,
2013-04-13 23:23:00,37.1,29.3,28.06,NW,321,0.0,0.0,73,0.00,,,3.50,WUHU216DAVISWMX,2013-04-14 03:23:00,
2013-04-13 23:28:00,37.0,29.9,28.06,NW,321,0.0,0.0,75,0.00,,,3.50,WUHU216DAVISWMX,2013-04-14 03:28:00,
2013-04-13 23:33:00,36.8,29.3,28.06,NW,321,0.0,0.0,74,0.00,,,3.50,WUHU216DAVISWMX,2013-04-14 03:33:00,
2013-04-13 23:38:00,36.7,29.6,28.06,NW,321,0.0,0.0,75,0.00,,,3.50,WUHU216DAVISWMX,2013-04-14 03:38:00,
2013-04-13 23:43:00,36.5,28.7,28.06,NW,321,0.0,0.0,73,0.00,,,3.50,WUHU216DAVISWMX,2013-04-14 03:43:00,
2013-04-13 23:48:00,36.4,29.0,28.05,NW,321,0.0,0.0,74,0.00,,,3.50,WUHU216DAVISWMX,2013-04-14 03:48:00,
2013-04-13 23:53:00,36.3,29.2,28.06,NW,321,0.0,0.0,75,0.00,,,3.50,WUHU216DAVISWMX,2013-04-14 03:53:00,
2013-04-13 23:58:00,36.0,28.6,28.06,NW,321,0.0,0.0,74,0.00,,,3.50,WUHU216DAVISWMX,2013-04-14 03:58:00,